sensor_id;sensor_type;location;lat;lon;timestamp;pressure;altitude;pressure_sealevel;temperature;humidity
72096;BME280;59968;51.084;16.748;2023-04-06T00:01:15;100748.09;;;0.83;65.72
72096;BME280;59968;51.084;16.748;2023-04-06T00:03:44;100748.00;;;0.78;65.92
72096;BME280;59968;51.084;16.748;2023-04-06T00:06:13;100749.98;;;0.79;65.98
72096;BME280;59968;51.084;16.748;2023-04-06T00:08:44;100747.14;;;0.78;65.73
72096;BME280;59968;51.084;16.748;2023-04-06T00:11:13;100746.38;;;0.79;65.57
72096;BME280;59968;51.084;16.748;2023-04-06T00:13:42;100748.61;;;0.79;65.55
72096;BME280;59968;51.084;16.748;2023-04-06T00:16:11;100752.12;;;0.80;65.55
72096;BME280;59968;51.084;16.748;2023-04-06T00:18:40;100751.05;;;0.80;65.56
72096;BME280;59968;51.084;16.748;2023-04-06T00:21:12;100750.02;;;0.80;65.46
72096;BME280;59968;51.084;16.748;2023-04-06T00:23:43;100749.95;;;0.81;65.51
72096;BME280;59968;51.084;16.748;2023-04-06T00:26:12;100745.02;;;0.79;65.38
72096;BME280;59968;51.084;16.748;2023-04-06T00:28:41;100743.16;;;0.79;65.52
72096;BME280;59968;51.084;16.748;2023-04-06T00:31:09;100742.94;;;0.77;65.67
72096;BME280;59968;51.084;16.748;2023-04-06T00:33:38;100739.83;;;0.76;65.64
72096;BME280;59968;51.084;16.748;2023-04-06T00:36:07;100737.58;;;0.72;65.65
72096;BME280;59968;51.084;16.748;2023-04-06T00:38:35;100738.50;;;0.68;65.69
72096;BME280;59968;51.084;16.748;2023-04-06T00:41:04;100736.56;;;0.65;65.73
72096;BME280;59968;51.084;16.748;2023-04-06T00:43:33;100737.30;;;0.62;66.04
72096;BME280;59968;51.084;16.748;2023-04-06T00:46:02;100736.13;;;0.59;65.98
72096;BME280;59968;51.084;16.748;2023-04-06T00:48:31;100737.09;;;0.55;66.03
72096;BME280;59968;51.084;16.748;2023-04-06T00:51:01;100733.19;;;0.53;66.14
72096;BME280;59968;51.084;16.748;2023-04-06T00:53:30;100737.44;;;0.53;66.15
72096;BME280;59968;51.084;16.748;2023-04-06T00:55:59;100739.35;;;0.55;66.08
72096;BME280;59968;51.084;16.748;2023-04-06T00:58:29;100740.80;;;0.56;66.34
72096;BME280;59968;51.084;16.748;2023-04-06T01:01:04;100736.17;;;0.56;66.07
72096;BME280;59968;51.084;16.748;2023-04-06T01:03:33;100736.32;;;0.54;66.17
72096;BME280;59968;51.084;16.748;2023-04-06T01:06:02;100734.21;;;0.53;66.07
72096;BME280;59968;51.084;16.748;2023-04-06T01:08:36;100737.77;;;0.51;65.79
72096;BME280;59968;51.084;16.748;2023-04-06T01:11:18;100732.45;;;0.47;65.87
72096;BME280;59968;51.084;16.748;2023-04-06T01:13:47;100730.83;;;0.46;65.78
72096;BME280;59968;51.084;16.748;2023-04-06T01:16:36;100729.57;;;0.45;65.97
72096;BME280;59968;51.084;16.748;2023-04-06T01:19:14;100729.27;;;0.42;65.61
72096;BME280;59968;51.084;16.748;2023-04-06T01:21:46;100729.39;;;0.40;65.88
72096;BME280;59968;51.084;16.748;2023-04-06T01:24:25;100731.94;;;0.36;65.91
72096;BME280;59968;51.084;16.748;2023-04-06T01:27:19;100730.92;;;0.34;65.92
72096;BME280;59968;51.084;16.748;2023-04-06T01:30:12;100731.10;;;0.31;66.24
72096;BME280;59968;51.084;16.748;2023-04-06T01:32:47;100729.70;;;0.29;66.19
72096;BME280;59968;51.084;16.748;2023-04-06T01:35:19;100732.61;;;0.29;66.36
72096;BME280;59968;51.084;16.748;2023-04-06T01:37:58;100735.73;;;0.28;66.55
72096;BME280;59968;51.084;16.748;2023-04-06T01:40:30;100744.80;;;0.28;66.24
72096;BME280;59968;51.084;16.748;2023-04-06T01:42:59;100742.59;;;0.23;66.15
72096;BME280;59968;51.084;16.748;2023-04-06T01:45:32;100742.34;;;0.20;66.13
72096;BME280;59968;51.084;16.748;2023-04-06T01:48:09;100747.46;;;0.17;66.60
72096;BME280;59968;51.084;16.748;2023-04-06T01:50:37;100745.60;;;0.15;66.63
72096;BME280;59968;51.084;16.748;2023-04-06T01:53:07;100743.11;;;0.11;66.70
72096;BME280;59968;51.084;16.748;2023-04-06T01:55:37;100746.56;;;0.11;66.60
72096;BME280;59968;51.084;16.748;2023-04-06T01:58:22;100744.57;;;0.10;66.76
72096;BME280;59968;51.084;16.748;2023-04-06T02:00:51;100740.62;;;0.08;66.59
72096;BME280;59968;51.084;16.748;2023-04-06T02:03:19;100747.63;;;0.10;66.50
72096;BME280;59968;51.084;16.748;2023-04-06T02:05:50;100747.41;;;0.09;66.41
72096;BME280;59968;51.084;16.748;2023-04-06T02:08:25;100744.83;;;0.07;66.37
72096;BME280;59968;51.084;16.748;2023-04-06T02:10:54;100744.30;;;0.05;66.29
72096;BME280;59968;51.084;16.748;2023-04-06T02:13:29;100744.87;;;0.04;66.69
72096;BME280;59968;51.084;16.748;2023-04-06T02:15:57;100746.69;;;0.02;66.89
72096;BME280;59968;51.084;16.748;2023-04-06T02:18:27;100746.60;;;0.01;66.66
72096;BME280;59968;51.084;16.748;2023-04-06T02:20:56;100741.96;;;-0.01;66.37
72096;BME280;59968;51.084;16.748;2023-04-06T02:23:24;100734.88;;;-0.06;66.89
72096;BME280;59968;51.084;16.748;2023-04-06T02:25:53;100734.95;;;-0.12;66.82
72096;BME280;59968;51.084;16.748;2023-04-06T02:28:21;100734.58;;;-0.21;67.06
72096;BME280;59968;51.084;16.748;2023-04-06T02:30:51;100740.04;;;-0.26;67.12
72096;BME280;59968;51.084;16.748;2023-04-06T02:33:19;100738.63;;;-0.30;67.45
72096;BME280;59968;51.084;16.748;2023-04-06T02:35:48;100739.67;;;-0.32;67.50
72096;BME280;59968;51.084;16.748;2023-04-06T02:38:17;100739.06;;;-0.33;67.63
72096;BME280;59968;51.084;16.748;2023-04-06T02:40:45;100740.16;;;-0.32;67.79
72096;BME280;59968;51.084;16.748;2023-04-06T02:43:22;100740.55;;;-0.30;67.78
72096;BME280;59968;51.084;16.748;2023-04-06T02:45:54;100738.34;;;-0.28;67.64
72096;BME280;59968;51.084;16.748;2023-04-06T02:48:23;100737.59;;;-0.27;67.29
72096;BME280;59968;51.084;16.748;2023-04-06T02:50:53;100739.88;;;-0.26;67.42
72096;BME280;59968;51.084;16.748;2023-04-06T02:53:22;100737.87;;;-0.26;67.05
72096;BME280;59968;51.084;16.748;2023-04-06T02:55:50;100739.36;;;-0.26;67.31
72096;BME280;59968;51.084;16.748;2023-04-06T02:58:19;100743.69;;;-0.27;67.30
72096;BME280;59968;51.084;16.748;2023-04-06T03:00:51;100732.11;;;-0.38;67.44
72096;BME280;59968;51.084;16.748;2023-04-06T03:03:19;100745.42;;;-0.37;67.37
72096;BME280;59968;51.084;16.748;2023-04-06T03:05:49;100746.21;;;-0.41;67.55
72096;BME280;59968;51.084;16.748;2023-04-06T03:08:20;100748.21;;;-0.43;67.55
72096;BME280;59968;51.084;16.748;2023-04-06T03:10:50;100750.16;;;-0.43;67.46
72096;BME280;59968;51.084;16.748;2023-04-06T03:13:20;100751.73;;;-0.46;67.40
72096;BME280;59968;51.084;16.748;2023-04-06T03:15:52;100749.85;;;-0.53;67.57
72096;BME280;59968;51.084;16.748;2023-04-06T03:18:22;100754.76;;;-0.63;67.85
72096;BME280;59968;51.084;16.748;2023-04-06T03:20:52;100751.80;;;-0.72;68.19
72096;BME280;59968;51.084;16.748;2023-04-06T03:23:30;100755.75;;;-0.77;68.32
72096;BME280;59968;51.084;16.748;2023-04-06T03:26:01;100755.87;;;-0.82;68.55
72096;BME280;59968;51.084;16.748;2023-04-06T03:28:30;100763.88;;;-0.84;68.62
72096;BME280;59968;51.084;16.748;2023-04-06T03:31:03;100764.93;;;-0.87;69.02
72096;BME280;59968;51.084;16.748;2023-04-06T03:34:02;100766.51;;;-0.90;69.13
72096;BME280;59968;51.084;16.748;2023-04-06T03:36:34;100771.36;;;-0.94;69.34
72096;BME280;59968;51.084;16.748;2023-04-06T03:39:04;100775.26;;;-0.97;69.29
72096;BME280;59968;51.084;16.748;2023-04-06T03:41:35;100777.66;;;-0.97;69.29
72096;BME280;59968;51.084;16.748;2023-04-06T03:44:14;100782.16;;;-0.93;69.11
72096;BME280;59968;51.084;16.748;2023-04-06T03:46:44;100779.45;;;-0.91;69.00
72096;BME280;59968;51.084;16.748;2023-04-06T03:49:13;100778.23;;;-0.91;68.84
72096;BME280;59968;51.084;16.748;2023-04-06T03:51:43;100779.94;;;-0.91;68.99
72096;BME280;59968;51.084;16.748;2023-04-06T03:54:11;100783.70;;;-0.89;69.00
72096;BME280;59968;51.084;16.748;2023-04-06T03:56:39;100786.08;;;-0.86;68.93
72096;BME280;59968;51.084;16.748;2023-04-06T03:59:08;100787.58;;;-0.86;68.63
72096;BME280;59968;51.084;16.748;2023-04-06T04:01:37;100787.81;;;-0.87;68.54
72096;BME280;59968;51.084;16.748;2023-04-06T04:04:07;100790.45;;;-0.88;68.38
72096;BME280;59968;51.084;16.748;2023-04-06T04:06:36;100793.13;;;-0.87;68.53
72096;BME280;59968;51.084;16.748;2023-04-06T04:09:05;100793.35;;;-0.88;68.69
72096;BME280;59968;51.084;16.748;2023-04-06T04:11:33;100793.39;;;-0.89;68.52
72096;BME280;59968;51.084;16.748;2023-04-06T04:14:02;100796.23;;;-0.91;68.94
72096;BME280;59968;51.084;16.748;2023-04-06T04:16:30;100782.61;;;-1.00;68.91
72096;BME280;59968;51.084;16.748;2023-04-06T04:18:59;100796.88;;;-0.93;69.02
72096;BME280;59968;51.084;16.748;2023-04-06T04:21:29;100801.14;;;-0.93;69.16
72096;BME280;59968;51.084;16.748;2023-04-06T04:24:01;100800.98;;;-0.93;68.93
72096;BME280;59968;51.084;16.748;2023-04-06T04:26:30;100802.52;;;-0.93;68.78
72096;BME280;59968;51.084;16.748;2023-04-06T04:28:59;100801.16;;;-0.93;68.87
72096;BME280;59968;51.084;16.748;2023-04-06T04:31:28;100799.64;;;-0.91;69.05
72096;BME280;59968;51.084;16.748;2023-04-06T04:33:59;100797.80;;;-0.86;69.63
72096;BME280;59968;51.084;16.748;2023-04-06T04:36:30;100796.91;;;-0.81;69.76
72096;BME280;59968;51.084;16.748;2023-04-06T04:39:00;100797.30;;;-0.76;70.13
72096;BME280;59968;51.084;16.748;2023-04-06T04:41:32;100795.08;;;-0.71;70.52
72096;BME280;59968;51.084;16.748;2023-04-06T04:44:01;100792.42;;;-0.68;70.17
72096;BME280;59968;51.084;16.748;2023-04-06T04:46:30;100792.32;;;-0.66;70.16
72096;BME280;59968;51.084;16.748;2023-04-06T04:48:59;100794.16;;;-0.66;70.14
72096;BME280;59968;51.084;16.748;2023-04-06T04:51:28;100795.70;;;-0.63;69.84
72096;BME280;59968;51.084;16.748;2023-04-06T04:54:12;100800.50;;;-0.59;69.92
72096;BME280;59968;51.084;16.748;2023-04-06T04:56:41;100800.27;;;-0.55;70.19
72096;BME280;59968;51.084;16.748;2023-04-06T04:59:34;100803.21;;;-0.49;70.61
72096;BME280;59968;51.084;16.748;2023-04-06T05:02:09;100802.68;;;-0.44;70.82
72096;BME280;59968;51.084;16.748;2023-04-06T05:04:46;100801.88;;;-0.38;71.12
72096;BME280;59968;51.084;16.748;2023-04-06T05:07:19;100806.27;;;-0.32;71.15
72096;BME280;59968;51.084;16.748;2023-04-06T05:09:50;100802.48;;;-0.27;71.19
72096;BME280;59968;51.084;16.748;2023-04-06T05:12:19;100803.65;;;-0.19;71.19
72096;BME280;59968;51.084;16.748;2023-04-06T05:14:55;100806.03;;;-0.12;71.16
72096;BME280;59968;51.084;16.748;2023-04-06T05:17:23;100805.16;;;-0.17;71.27
72096;BME280;59968;51.084;16.748;2023-04-06T05:19:53;100804.58;;;-0.20;71.35
72096;BME280;59968;51.084;16.748;2023-04-06T05:22:24;100801.85;;;-0.21;71.64
72096;BME280;59968;51.084;16.748;2023-04-06T05:25:02;100802.05;;;-0.16;71.71
72096;BME280;59968;51.084;16.748;2023-04-06T05:27:31;100798.20;;;-0.10;71.68
72096;BME280;59968;51.084;16.748;2023-04-06T05:30:03;100801.24;;;-0.05;71.72
72096;BME280;59968;51.084;16.748;2023-04-06T05:32:34;100802.63;;;0.04;71.84
72096;BME280;59968;51.084;16.748;2023-04-06T05:35:02;100804.10;;;0.15;71.74
72096;BME280;59968;51.084;16.748;2023-04-06T05:37:31;100805.90;;;0.25;71.67
72096;BME280;59968;51.084;16.748;2023-04-06T05:40:01;100804.33;;;0.34;71.63
72096;BME280;59968;51.084;16.748;2023-04-06T05:42:40;100806.38;;;0.46;71.44
72096;BME280;59968;51.084;16.748;2023-04-06T05:45:11;100810.82;;;0.59;71.33
72096;BME280;59968;51.084;16.748;2023-04-06T05:47:46;100814.55;;;0.69;71.12
72096;BME280;59968;51.084;16.748;2023-04-06T05:50:23;100810.54;;;0.79;71.05
72096;BME280;59968;51.084;16.748;2023-04-06T05:52:51;100811.70;;;0.86;70.91
72096;BME280;59968;51.084;16.748;2023-04-06T05:55:21;100809.34;;;0.95;71.17
72096;BME280;59968;51.084;16.748;2023-04-06T05:57:55;100808.49;;;1.08;71.07
72096;BME280;59968;51.084;16.748;2023-04-06T06:00:24;100808.64;;;1.20;70.95
72096;BME280;59968;51.084;16.748;2023-04-06T06:02:56;100812.23;;;1.33;70.83
72096;BME280;59968;51.084;16.748;2023-04-06T06:05:28;100808.96;;;1.49;70.89
72096;BME280;59968;51.084;16.748;2023-04-06T06:08:01;100807.14;;;1.65;70.87
72096;BME280;59968;51.084;16.748;2023-04-06T06:10:30;100811.27;;;1.75;70.44
72096;BME280;59968;51.084;16.748;2023-04-06T06:12:59;100812.59;;;1.87;70.66
72096;BME280;59968;51.084;16.748;2023-04-06T06:15:28;100808.45;;;2.02;70.65
72096;BME280;59968;51.084;16.748;2023-04-06T06:17:57;100809.27;;;2.17;69.99
72096;BME280;59968;51.084;16.748;2023-04-06T06:20:27;100810.81;;;2.32;69.81
72096;BME280;59968;51.084;16.748;2023-04-06T06:22:57;100813.27;;;2.43;69.59
72096;BME280;59968;51.084;16.748;2023-04-06T06:25:26;100811.14;;;2.55;69.51
72096;BME280;59968;51.084;16.748;2023-04-06T06:27:55;100812.83;;;2.67;69.43
72096;BME280;59968;51.084;16.748;2023-04-06T06:30:25;100810.58;;;2.80;69.05
72096;BME280;59968;51.084;16.748;2023-04-06T06:32:54;100812.77;;;2.92;68.96
72096;BME280;59968;51.084;16.748;2023-04-06T06:35:23;100810.61;;;3.02;68.53
72096;BME280;59968;51.084;16.748;2023-04-06T06:37:53;100809.86;;;3.07;68.44
72096;BME280;59968;51.084;16.748;2023-04-06T06:40:24;100813.96;;;3.15;68.58
72096;BME280;59968;51.084;16.748;2023-04-06T06:42:54;100812.54;;;3.27;68.70
72096;BME280;59968;51.084;16.748;2023-04-06T06:45:33;100810.46;;;3.40;68.23
72096;BME280;59968;51.084;16.748;2023-04-06T06:48:02;100812.03;;;3.49;68.11
72096;BME280;59968;51.084;16.748;2023-04-06T06:50:32;100811.05;;;3.60;67.80
72096;BME280;59968;51.084;16.748;2023-04-06T06:53:02;100808.75;;;3.71;67.48
72096;BME280;59968;51.084;16.748;2023-04-06T06:55:31;100809.32;;;3.80;67.37
72096;BME280;59968;51.084;16.748;2023-04-06T06:58:00;100813.00;;;3.91;67.29
72096;BME280;59968;51.084;16.748;2023-04-06T07:00:30;100814.87;;;4.03;66.96
72096;BME280;59968;51.084;16.748;2023-04-06T07:03:00;100818.02;;;4.13;66.67
72096;BME280;59968;51.084;16.748;2023-04-06T07:05:29;100818.26;;;4.17;66.54
72096;BME280;59968;51.084;16.748;2023-04-06T07:07:58;100815.30;;;4.28;66.70
72096;BME280;59968;51.084;16.748;2023-04-06T07:10:28;100817.29;;;4.42;66.38
72096;BME280;59968;51.084;16.748;2023-04-06T07:12:56;100815.33;;;4.57;65.93
72096;BME280;59968;51.084;16.748;2023-04-06T07:15:26;100819.90;;;4.68;65.74
72096;BME280;59968;51.084;16.748;2023-04-06T07:17:55;100822.02;;;4.75;65.46
72096;BME280;59968;51.084;16.748;2023-04-06T07:20:24;100818.60;;;4.83;65.38
72096;BME280;59968;51.084;16.748;2023-04-06T07:22:53;100815.73;;;4.88;65.45
72096;BME280;59968;51.084;16.748;2023-04-06T07:25:24;100816.09;;;4.91;65.60
72096;BME280;59968;51.084;16.748;2023-04-06T07:27:53;100813.94;;;4.96;65.34
72096;BME280;59968;51.084;16.748;2023-04-06T07:30:23;100813.21;;;5.00;65.55
72096;BME280;59968;51.084;16.748;2023-04-06T07:32:55;100812.45;;;5.06;65.64
72096;BME280;59968;51.084;16.748;2023-04-06T07:35:26;100816.17;;;5.18;65.12
72096;BME280;59968;51.084;16.748;2023-04-06T07:37:56;100816.86;;;5.29;65.09
72096;BME280;59968;51.084;16.748;2023-04-06T07:40:26;100816.73;;;5.36;65.13
72096;BME280;59968;51.084;16.748;2023-04-06T07:42:55;100817.05;;;5.47;65.14
72096;BME280;59968;51.084;16.748;2023-04-06T07:45:26;100817.55;;;5.60;64.87
72096;BME280;59968;51.084;16.748;2023-04-06T07:47:55;100818.67;;;5.68;64.84
72096;BME280;59968;51.084;16.748;2023-04-06T07:50:25;100819.76;;;5.74;64.99
72096;BME280;59968;51.084;16.748;2023-04-06T07:52:55;100814.04;;;5.91;64.68
72096;BME280;59968;51.084;16.748;2023-04-06T07:55:24;100813.48;;;6.02;64.44
72096;BME280;59968;51.084;16.748;2023-04-06T07:57:53;100814.52;;;6.11;64.13
72096;BME280;59968;51.084;16.748;2023-04-06T08:00:22;100816.47;;;6.14;63.86
72096;BME280;59968;51.084;16.748;2023-04-06T08:02:51;100822.09;;;6.20;64.00
72096;BME280;59968;51.084;16.748;2023-04-06T08:05:21;100825.98;;;6.24;63.83
72096;BME280;59968;51.084;16.748;2023-04-06T08:07:51;100821.90;;;6.30;63.74
72096;BME280;59968;51.084;16.748;2023-04-06T08:10:20;100820.97;;;6.40;63.99
72096;BME280;59968;51.084;16.748;2023-04-06T08:12:51;100820.65;;;6.53;63.36
72096;BME280;59968;51.084;16.748;2023-04-06T08:15:21;100818.48;;;6.68;63.40
72096;BME280;59968;51.084;16.748;2023-04-06T08:17:50;100821.90;;;6.86;63.39
72096;BME280;59968;51.084;16.748;2023-04-06T08:20:20;100819.29;;;6.94;62.97
72096;BME280;59968;51.084;16.748;2023-04-06T08:22:49;100820.82;;;7.05;62.67
72096;BME280;59968;51.084;16.748;2023-04-06T08:25:21;100817.41;;;7.20;62.21
72096;BME280;59968;51.084;16.748;2023-04-06T08:27:51;100818.23;;;7.29;61.73
72096;BME280;59968;51.084;16.748;2023-04-06T08:30:20;100816.00;;;7.37;61.42
72096;BME280;59968;51.084;16.748;2023-04-06T08:32:50;100819.93;;;7.44;61.55
72096;BME280;59968;51.084;16.748;2023-04-06T08:35:27;100817.14;;;7.52;61.05
72096;BME280;59968;51.084;16.748;2023-04-06T08:37:57;100819.42;;;7.57;60.59
72096;BME280;59968;51.084;16.748;2023-04-06T08:40:27;100819.20;;;7.67;59.87
72096;BME280;59968;51.084;16.748;2023-04-06T08:42:59;100818.19;;;7.77;59.01
72096;BME280;59968;51.084;16.748;2023-04-06T08:45:31;100815.45;;;7.85;59.36
72096;BME280;59968;51.084;16.748;2023-04-06T08:48:03;100814.12;;;7.93;58.99
72096;BME280;59968;51.084;16.748;2023-04-06T08:50:34;100811.42;;;8.07;59.10
72096;BME280;59968;51.084;16.748;2023-04-06T08:53:05;100809.89;;;8.20;58.63
72096;BME280;59968;51.084;16.748;2023-04-06T08:55:35;100813.73;;;8.31;58.30
72096;BME280;59968;51.084;16.748;2023-04-06T08:58:06;100815.99;;;8.39;58.17
72096;BME280;59968;51.084;16.748;2023-04-06T09:00:38;100816.05;;;8.35;57.87
72096;BME280;59968;51.084;16.748;2023-04-06T09:03:08;100802.77;;;8.25;57.25
72096;BME280;59968;51.084;16.748;2023-04-06T09:05:39;100810.04;;;8.38;56.60
72096;BME280;59968;51.084;16.748;2023-04-06T09:08:08;100807.96;;;8.46;56.18
72096;BME280;59968;51.084;16.748;2023-04-06T09:10:40;100809.08;;;8.44;56.11
72096;BME280;59968;51.084;16.748;2023-04-06T09:13:10;100805.61;;;8.41;55.32
72096;BME280;59968;51.084;16.748;2023-04-06T09:15:40;100807.48;;;8.43;55.16
72096;BME280;59968;51.084;16.748;2023-04-06T09:18:09;100806.64;;;8.34;54.54
72096;BME280;59968;51.084;16.748;2023-04-06T09:20:38;100805.55;;;8.19;54.29
72096;BME280;59968;51.084;16.748;2023-04-06T09:23:17;100810.02;;;8.09;54.72
72096;BME280;59968;51.084;16.748;2023-04-06T09:25:47;100803.80;;;8.16;52.99
72096;BME280;59968;51.084;16.748;2023-04-06T09:28:16;100797.20;;;8.26;51.59
72096;BME280;59968;51.084;16.748;2023-04-06T09:30:49;100796.48;;;8.39;51.96
72096;BME280;59968;51.084;16.748;2023-04-06T09:33:23;100796.33;;;8.54;50.74
72096;BME280;59968;51.084;16.748;2023-04-06T09:35:52;100797.92;;;8.69;50.54
72096;BME280;59968;51.084;16.748;2023-04-06T09:38:21;100794.90;;;8.85;50.19
72096;BME280;59968;51.084;16.748;2023-04-06T09:40:51;100792.80;;;9.00;49.53
72096;BME280;59968;51.084;16.748;2023-04-06T09:43:30;100792.36;;;9.07;48.26
72096;BME280;59968;51.084;16.748;2023-04-06T09:46:00;100788.90;;;9.17;47.75
72096;BME280;59968;51.084;16.748;2023-04-06T09:48:34;100788.56;;;9.18;47.03
72096;BME280;59968;51.084;16.748;2023-04-06T09:51:06;100787.76;;;9.16;46.75
72096;BME280;59968;51.084;16.748;2023-04-06T09:53:39;100785.59;;;9.25;46.70
72096;BME280;59968;51.084;16.748;2023-04-06T09:56:16;100787.49;;;9.40;46.74
72096;BME280;59968;51.084;16.748;2023-04-06T09:58:50;100784.27;;;9.56;46.62
72096;BME280;59968;51.084;16.748;2023-04-06T10:01:21;100783.52;;;9.72;45.79
72096;BME280;59968;51.084;16.748;2023-04-06T10:04:13;100784.82;;;9.84;44.41
72096;BME280;59968;51.084;16.748;2023-04-06T10:06:49;100782.80;;;9.90;43.66
72096;BME280;59968;51.084;16.748;2023-04-06T10:09:25;100782.50;;;9.95;43.53
72096;BME280;59968;51.084;16.748;2023-04-06T10:11:58;100777.55;;;10.02;43.25
72096;BME280;59968;51.084;16.748;2023-04-06T10:14:27;100775.94;;;10.13;43.08
72096;BME280;59968;51.084;16.748;2023-04-06T10:16:56;100772.13;;;10.28;42.87
72096;BME280;59968;51.084;16.748;2023-04-06T10:19:28;100768.29;;;10.48;43.06
72096;BME280;59968;51.084;16.748;2023-04-06T10:22:03;100763.16;;;10.68;42.57
72096;BME280;59968;51.084;16.748;2023-04-06T10:24:33;100766.14;;;10.81;42.10
72096;BME280;59968;51.084;16.748;2023-04-06T10:27:02;100759.98;;;10.80;40.62
72096;BME280;59968;51.084;16.748;2023-04-06T10:29:45;100766.67;;;10.66;41.18
72096;BME280;59968;51.084;16.748;2023-04-06T10:32:15;100760.96;;;10.54;40.48
72096;BME280;59968;51.084;16.748;2023-04-06T10:34:44;100756.39;;;10.51;40.45
72096;BME280;59968;51.084;16.748;2023-04-06T10:37:16;100762.18;;;10.48;41.13
72096;BME280;59968;51.084;16.748;2023-04-06T10:39:53;100761.10;;;10.37;40.24
72096;BME280;59968;51.084;16.748;2023-04-06T10:42:36;100757.05;;;10.23;41.74
72096;BME280;59968;51.084;16.748;2023-04-06T10:45:07;100751.67;;;10.23;42.88
72096;BME280;59968;51.084;16.748;2023-04-06T10:47:40;100754.01;;;10.22;43.30
72096;BME280;59968;51.084;16.748;2023-04-06T10:50:10;100758.13;;;10.25;41.81
72096;BME280;59968;51.084;16.748;2023-04-06T10:52:45;100758.23;;;10.30;41.52
72096;BME280;59968;51.084;16.748;2023-04-06T10:55:16;100757.11;;;10.27;41.42
72096;BME280;59968;51.084;16.748;2023-04-06T10:57:46;100758.42;;;10.24;41.83
72096;BME280;59968;51.084;16.748;2023-04-06T11:00:16;100755.30;;;10.20;41.21
72096;BME280;59968;51.084;16.748;2023-04-06T11:02:45;100751.64;;;10.21;40.88
72096;BME280;59968;51.084;16.748;2023-04-06T11:05:15;100743.99;;;10.25;40.51
72096;BME280;59968;51.084;16.748;2023-04-06T11:07:44;100738.55;;;10.33;40.81
72096;BME280;59968;51.084;16.748;2023-04-06T11:10:21;100739.60;;;10.43;40.56
72096;BME280;59968;51.084;16.748;2023-04-06T11:12:54;100737.73;;;10.46;41.35
72096;BME280;59968;51.084;16.748;2023-04-06T11:15:23;100733.33;;;10.53;41.15
72096;BME280;59968;51.084;16.748;2023-04-06T11:17:52;100734.95;;;10.55;40.41
72096;BME280;59968;51.084;16.748;2023-04-06T11:20:21;100729.98;;;10.53;39.81
72096;BME280;59968;51.084;16.748;2023-04-06T11:22:51;100729.95;;;10.57;39.28
72096;BME280;59968;51.084;16.748;2023-04-06T11:25:20;100722.39;;;10.52;38.37
72096;BME280;59968;51.084;16.748;2023-04-06T11:27:48;100728.67;;;10.45;39.16
72096;BME280;59968;51.084;16.748;2023-04-06T11:30:18;100714.66;;;10.45;39.18
72096;BME280;59968;51.084;16.748;2023-04-06T11:32:47;100713.83;;;10.57;39.67
72096;BME280;59968;51.084;16.748;2023-04-06T11:35:23;100716.05;;;10.68;39.50
72096;BME280;59968;51.084;16.748;2023-04-06T11:37:52;100716.59;;;10.67;39.77
72096;BME280;59968;51.084;16.748;2023-04-06T11:40:22;100716.98;;;10.59;38.23
72096;BME280;59968;51.084;16.748;2023-04-06T11:42:52;100710.73;;;10.45;37.54
72096;BME280;59968;51.084;16.748;2023-04-06T11:45:22;100706.80;;;10.38;38.45
72096;BME280;59968;51.084;16.748;2023-04-06T11:47:59;100710.34;;;10.39;38.86
72096;BME280;59968;51.084;16.748;2023-04-06T11:50:33;100707.00;;;10.39;38.83
72096;BME280;59968;51.084;16.748;2023-04-06T11:53:04;100702.98;;;10.46;38.86
72096;BME280;59968;51.084;16.748;2023-04-06T11:55:38;100699.15;;;10.54;37.93
72096;BME280;59968;51.084;16.748;2023-04-06T11:58:08;100695.89;;;10.59;37.77
72096;BME280;59968;51.084;16.748;2023-04-06T12:00:36;100694.09;;;10.66;37.43
72096;BME280;59968;51.084;16.748;2023-04-06T12:03:08;100692.00;;;10.66;37.71
72096;BME280;59968;51.084;16.748;2023-04-06T12:05:37;100686.16;;;10.74;37.66
72096;BME280;59968;51.084;16.748;2023-04-06T12:08:06;100687.57;;;10.84;37.77
72096;BME280;59968;51.084;16.748;2023-04-06T12:10:34;100690.06;;;10.88;38.57
72096;BME280;59968;51.084;16.748;2023-04-06T12:13:03;100690.68;;;10.77;37.99
72096;BME280;59968;51.084;16.748;2023-04-06T12:15:32;100692.14;;;10.65;37.67
72096;BME280;59968;51.084;16.748;2023-04-06T12:18:01;100687.52;;;10.50;37.30
72096;BME280;59968;51.084;16.748;2023-04-06T12:20:32;100675.66;;;10.40;37.83
72096;BME280;59968;51.084;16.748;2023-04-06T12:23:01;100681.44;;;10.49;37.77
72096;BME280;59968;51.084;16.748;2023-04-06T12:25:30;100681.35;;;10.48;38.04
72096;BME280;59968;51.084;16.748;2023-04-06T12:27:59;100681.30;;;10.36;37.57
72096;BME280;59968;51.084;16.748;2023-04-06T12:30:28;100678.86;;;10.26;37.53
72096;BME280;59968;51.084;16.748;2023-04-06T12:32:58;100667.95;;;10.22;37.86
72096;BME280;59968;51.084;16.748;2023-04-06T12:35:27;100667.31;;;10.23;38.40
72096;BME280;59968;51.084;16.748;2023-04-06T12:37:57;100665.26;;;10.29;37.53
72096;BME280;59968;51.084;16.748;2023-04-06T12:40:27;100662.02;;;10.34;38.75
72096;BME280;59968;51.084;16.748;2023-04-06T12:42:55;100659.06;;;10.40;38.32
72096;BME280;59968;51.084;16.748;2023-04-06T12:45:24;100655.44;;;10.43;37.90
72096;BME280;59968;51.084;16.748;2023-04-06T12:47:53;100655.52;;;10.47;37.76
72096;BME280;59968;51.084;16.748;2023-04-06T12:50:22;100653.09;;;10.50;37.97
72096;BME280;59968;51.084;16.748;2023-04-06T12:52:51;100649.17;;;10.49;38.12
72096;BME280;59968;51.084;16.748;2023-04-06T12:55:19;100646.00;;;10.51;37.36
72096;BME280;59968;51.084;16.748;2023-04-06T12:57:49;100637.16;;;10.53;38.52
72096;BME280;59968;51.084;16.748;2023-04-06T13:00:19;100632.38;;;10.55;38.28
72096;BME280;59968;51.084;16.748;2023-04-06T13:02:48;100634.73;;;10.52;39.12
72096;BME280;59968;51.084;16.748;2023-04-06T13:05:17;100626.02;;;10.55;39.43